This is the latest recevied weather packets stored in our database for station/object ED1ZAI-13. If no packets are shown the sender has not sent any weather packets the latest 10 day(s).
| Time | Temp. | Humidity | Pressure | Rain* | Wind** | Luminosity | Snow |
|---|---|---|---|---|---|---|---|
| 1777468605 | 16.11° C | 70% | 1008.9 hPa | 0 mm | - | - | - |
| 1777468005 | 16.11° C | 68% | 1008.9 hPa | 0 mm | - | - | - |
| 1777467404 | 15.56° C | 66% | 1009 hPa | 0 mm | - | - | - |
| 1777466804 | 15.56° C | 67% | 1008.9 hPa | 0.51 mm | - | - | - |
| 1777466206 | 16.11° C | 64% | 1008.9 hPa | 0.51 mm | - | - | - |
| 1777465606 | 15° C | 71% | 1009.2 hPa | 0.51 mm | - | - | - |
| 1777465005 | 13.89° C | 75% | 1009.4 hPa | 0.51 mm | - | - | - |
| 1777464405 | 13.33° C | 77% | 1009.6 hPa | 0.51 mm | - | - | - |
| 1777463804 | 13.33° C | 77% | 1009.6 hPa | 0.51 mm | - | - | - |
| 1777463204 | 13.89° C | 76% | 1009.5 hPa | 0 mm | - | - | - |
| 1777462606 | 13.33° C | 75% | 1009.5 hPa | 0 mm | - | - | - |
| 1777462005 | 13.33° C | 75% | 1009.5 hPa | 0 mm | - | - | - |
| 1777461405 | 13.33° C | 75% | 1009.4 hPa | 0 mm | - | - | - |
| 1777460804 | 13.33° C | 76% | 1009.4 hPa | 0 mm | - | - | - |
| 1777460204 | 13.33° C | 73% | 1009.2 hPa | 0 mm | - | - | - |
| 1777459606 | 13.89° C | 72% | 1009.2 hPa | 0 mm | - | - | - |
| 1777459005 | 13.33° C | 74% | 1009.3 hPa | 0 mm | - | - | - |
| 1777458405 | 13.89° C | 71% | 1009.2 hPa | 0 mm | - | - | - |
| 1777457805 | 13.89° C | 72% | 1009.2 hPa | 0 mm | - | - | - |
| 1777457204 | 13.33° C | 74% | 1009.3 hPa | 0 mm | - | - | - |
| 1777456604 | 13.33° C | 74% | 1009.1 hPa | 0 mm | - | - | - |
| 1777456006 | 13.33° C | 74% | 1009.2 hPa | 0 mm | - | - | - |
| 1777455406 | 12.78° C | 73% | 1009.1 hPa | 0 mm | - | - | - |
| 1777454805 | 12.78° C | 75% | 1009 hPa | 0 mm | - | - | - |
| 1777454205 | 12.78° C | 77% | 1009 hPa | 0 mm | - | - | - |
* Rain latest hour (hover to see other rain measurements)
** Current wind speed in m/s (hover to see current wind gust speed)